DGGR11 RPLL-RPVM
Flight info
| Callsign | DGGR11 |
|---|---|
| Flight time | N/A |
| Altitude | 41000 |
| Route | IPATA2R IPATA W25 BATAY BATAY3P |
| Aircraft | F35/M-SDE3RV/LB1 |
Departure
| Time | 2026-05-01 13:35 |
|---|---|
| Airport | Ninoy Aquino International Airport (RPLL) |
Arrival
| Time | N/A |
|---|---|
| Airport | Mactan Cebu International Airport (RPVM) |
| Time | Latitude | Longitude | Altitude | Speed | Heading |
|---|---|---|---|---|---|
| 2026-05-01 13:13 | 14.50583 | 121.00856 | 67 ft | 0 kts | 329° |
| 2026-05-01 13:30 | 14.50508 | 121.00878 | 62 ft | 6 kts | 239° |
| 2026-05-01 13:31 | 14.50441 | 121.00819 | 66 ft | 13 kts | 191° |
| 2026-05-01 13:31 | 14.50295 | 121.00646 | 66 ft | 19 kts | 239° |
| 2026-05-01 13:32 | 14.50121 | 121.00361 | 66 ft | 7 kts | 191° |
| 2026-05-01 13:33 | 14.50092 | 121.00370 | 66 ft | 0 kts | 149° |
| 2026-05-01 13:33 | 14.50074 | 121.00380 | 65 ft | 8 kts | 152° |
| 2026-05-01 13:34 | 14.50036 | 121.00456 | 60 ft | 0 kts | 62° |
| 2026-05-01 13:35 | 14.50050 | 121.00483 | 65 ft | 41 kts | 60° |
| 2026-05-01 13:35 | 14.51526 | 121.03276 | 1129 ft | 359 kts | 63° |
| 2026-05-01 13:36 | 14.52574 | 121.05370 | 1956 ft | 296 kts | 63° |
| 2026-05-01 13:36 | 14.53419 | 121.07043 | 2580 ft | 229 kts | 63° |
| 2026-05-01 13:36 | 14.54802 | 121.09726 | 3893 ft | 212 kts | 63° |
| 2026-05-01 13:37 | 14.55516 | 121.11094 | 4588 ft | 219 kts | 63° |
| 2026-05-01 13:37 | 14.56251 | 121.12496 | 5286 ft | 222 kts | 65° |
| 2026-05-01 13:37 | 14.56493 | 121.14028 | 6027 ft | 223 kts | 104° |
| 2026-05-01 13:37 | 14.55729 | 121.15422 | 6758 ft | 230 kts | 130° |
| 2026-05-01 13:38 | 14.53459 | 121.17757 | 8161 ft | 233 kts | 136° |
| 2026-05-01 13:38 | 14.52232 | 121.18878 | 8895 ft | 236 kts | 136° |
| 2026-05-01 13:38 | 14.51017 | 121.20053 | 9654 ft | 242 kts | 134° |
| 2026-05-01 13:39 | 14.49806 | 121.21255 | 10360 ft | 243 kts | 135° |
| 2026-05-01 13:39 | 14.48550 | 121.22445 | 11068 ft | 246 kts | 135° |
| 2026-05-01 13:39 | 14.47287 | 121.23630 | 11788 ft | 247 kts | 135° |
| 2026-05-01 13:39 | 14.46017 | 121.24845 | 12523 ft | 248 kts | 134° |
| 2026-05-01 13:40 | 14.44746 | 121.26068 | 13274 ft | 252 kts | 134° |
| 2026-05-01 13:40 | 14.43455 | 121.27299 | 14001 ft | 252 kts | 134° |
| 2026-05-01 13:40 | 14.42150 | 121.28542 | 14686 ft | 259 kts | 135° |
| 2026-05-01 13:40 | 14.40825 | 121.29807 | 15384 ft | 260 kts | 135° |
| 2026-05-01 13:41 | 14.39480 | 121.31090 | 16102 ft | 267 kts | 135° |
| 2026-05-01 13:41 | 14.38120 | 121.32384 | 16835 ft | 267 kts | 135° |
| 2026-05-01 13:41 | 14.36739 | 121.33700 | 17591 ft | 273 kts | 135° |
| 2026-05-01 13:41 | 14.35337 | 121.35037 | 18343 ft | 275 kts | 135° |
| 2026-05-01 13:42 | 14.33657 | 121.36648 | 19065 ft | 398 kts | 136° |
| 2026-05-01 13:42 | 14.31607 | 121.38592 | 19795 ft | 400 kts | 136° |
| 2026-05-01 13:42 | 14.29530 | 121.40561 | 20531 ft | 406 kts | 136° |
| 2026-05-01 13:42 | 14.27446 | 121.42556 | 21274 ft | 413 kts | 136° |
| 2026-05-01 13:43 | 14.25320 | 121.44577 | 22029 ft | 419 kts | 137° |
| 2026-05-01 13:43 | 14.23189 | 121.46600 | 22786 ft | 425 kts | 137° |
| 2026-05-01 13:43 | 14.21003 | 121.48682 | 23558 ft | 432 kts | 137° |
| 2026-05-01 13:43 | 14.18788 | 121.50790 | 24216 ft | 435 kts | 137° |
| 2026-05-01 13:44 | 14.16544 | 121.52920 | 24885 ft | 442 kts | 137° |
| 2026-05-01 13:44 | 14.14271 | 121.55082 | 25572 ft | 447 kts | 138° |
| 2026-05-01 13:44 | 14.11971 | 121.57266 | 26259 ft | 452 kts | 138° |
| 2026-05-01 13:44 | 14.09643 | 121.59477 | 26970 ft | 459 kts | 138° |
| 2026-05-01 13:45 | 14.07282 | 121.61720 | 27705 ft | 463 kts | 139° |
| 2026-05-01 13:45 | 14.04811 | 121.64061 | 28463 ft | 530 kts | 139° |
| 2026-05-01 13:45 | 14.02035 | 121.66697 | 29250 ft | 544 kts | 139° |
| 2026-05-01 13:45 | 13.99233 | 121.69358 | 30045 ft | 553 kts | 139° |
| 2026-05-01 13:46 | 13.96388 | 121.72053 | 30731 ft | 558 kts | 139° |
| 2026-05-01 13:46 | 13.93516 | 121.74777 | 31425 ft | 565 kts | 139° |
| 2026-05-01 13:46 | 13.90611 | 121.77530 | 32134 ft | 570 kts | 139° |
| 2026-05-01 13:46 | 13.87673 | 121.80304 | 32865 ft | 579 kts | 139° |
| 2026-05-01 13:47 | 13.84591 | 121.82995 | 33583 ft | 583 kts | 145° |
| 2026-05-01 13:47 | 13.81211 | 121.85399 | 34163 ft | 597 kts | 147° |
| 2026-05-01 13:47 | 13.77844 | 121.87917 | 34696 ft | 601 kts | 143° |
| 2026-05-01 13:47 | 13.74496 | 121.90497 | 35288 ft | 602 kts | 146° |
| 2026-05-01 13:48 | 13.71086 | 121.93007 | 35919 ft | 604 kts | 144° |
| 2026-05-01 13:48 | 13.67703 | 121.95616 | 36679 ft | 616 kts | 145° |
| 2026-05-01 13:48 | 13.64131 | 121.98265 | 37584 ft | 648 kts | 145° |
| 2026-05-01 13:48 | 13.60416 | 122.01088 | 38504 ft | 682 kts | 144° |
| 2026-05-01 13:49 | 13.56493 | 122.04034 | 39301 ft | 715 kts | 145° |
| 2026-05-01 13:49 | 13.52382 | 122.07128 | 40096 ft | 753 kts | 144° |
| 2026-05-01 13:49 | 13.48009 | 122.10425 | 40626 ft | 806 kts | 145° |
| 2026-05-01 13:49 | 13.43308 | 122.13954 | 40879 ft | 868 kts | 144° |
| 2026-05-01 13:50 | 13.38249 | 122.17763 | 40975 ft | 939 kts | 144° |
| 2026-05-01 13:50 | 13.32828 | 122.21832 | 41016 ft | 979 kts | 144° |
| 2026-05-01 13:50 | 13.27626 | 122.25744 | 41002 ft | 870 kts | 144° |
| 2026-05-01 13:50 | 13.23000 | 122.29212 | 40961 ft | 780 kts | 144° |
| 2026-05-01 13:51 | 13.18844 | 122.32331 | 40922 ft | 711 kts | 145° |
| 2026-05-01 13:51 | 13.10806 | 122.38355 | 40910 ft | 722 kts | 145° |
| 2026-05-01 13:52 | 13.02611 | 122.44493 | 40922 ft | 727 kts | 144° |
| 2026-05-01 13:52 | 12.94492 | 122.50570 | 40932 ft | 728 kts | 144° |
| 2026-05-01 13:53 | 12.86309 | 122.56690 | 40937 ft | 728 kts | 145° |
| 2026-05-01 13:53 | 12.74035 | 122.65859 | 40941 ft | 728 kts | 145° |
| 2026-05-01 13:54 | 12.65847 | 122.71970 | 40940 ft | 736 kts | 145° |
| 2026-05-01 13:54 | 12.61551 | 122.75172 | 40954 ft | 795 kts | 145° |
| 2026-05-01 13:54 | 12.56894 | 122.78645 | 40977 ft | 862 kts | 144° |
| 2026-05-01 13:55 | 12.51847 | 122.82405 | 40997 ft | 936 kts | 144° |
| 2026-05-01 13:55 | 12.46732 | 122.86220 | 40989 ft | 853 kts | 144° |
| 2026-05-01 13:55 | 12.42207 | 122.89585 | 40952 ft | 778 kts | 145° |
| 2026-05-01 13:55 | 12.37747 | 122.92902 | 40936 ft | 799 kts | 145° |
| 2026-05-01 13:56 | 12.28697 | 122.99632 | 40932 ft | 807 kts | 144° |
| 2026-05-01 13:56 | 12.19606 | 123.06387 | 40929 ft | 808 kts | 145° |
| 2026-05-01 13:57 | 12.12052 | 123.11995 | 40929 ft | 808 kts | 144° |
| 2026-05-01 13:57 | 12.01430 | 123.19874 | 40926 ft | 807 kts | 145° |
| 2026-05-01 13:58 | 11.92334 | 123.26615 | 40920 ft | 807 kts | 144° |
| 2026-05-01 13:58 | 11.83237 | 123.33351 | 40923 ft | 808 kts | 145° |
| 2026-05-01 13:59 | 11.74147 | 123.40076 | 40919 ft | 809 kts | 144° |
| 2026-05-01 13:59 | 11.64841 | 123.46478 | 40921 ft | 807 kts | 150° |
| 2026-05-01 14:00 | 11.55424 | 123.52704 | 40917 ft | 807 kts | 148° |
| 2026-05-01 14:00 | 11.46071 | 123.58896 | 40909 ft | 806 kts | 148° |
| 2026-05-01 14:01 | 11.36660 | 123.65118 | 40906 ft | 806 kts | 148° |
| 2026-05-01 14:01 | 11.27254 | 123.71327 | 40901 ft | 806 kts | 148° |
| 2026-05-01 14:02 | 11.17853 | 123.77528 | 40900 ft | 804 kts | 148° |
| 2026-05-01 14:02 | 11.08462 | 123.83715 | 40148 ft | 798 kts | 148° |
| 2026-05-01 14:03 | 11.03886 | 123.86732 | 39433 ft | 749 kts | 148° |
| 2026-05-01 14:03 | 10.99751 | 123.89455 | 38715 ft | 669 kts | 148° |
| 2026-05-01 14:03 | 10.96068 | 123.91880 | 37851 ft | 570 kts | 148° |
| 2026-05-01 14:03 | 10.93279 | 123.93719 | 37031 ft | 396 kts | 148° |
| 2026-05-01 14:04 | 10.91323 | 123.95007 | 36215 ft | 283 kts | 148° |
| 2026-05-01 14:04 | 10.89838 | 123.95978 | 35416 ft | 225 kts | 148° |
| 2026-05-01 14:04 | 10.88660 | 123.96749 | 34379 ft | 189 kts | 147° |
| 2026-05-01 14:04 | 10.87924 | 123.97231 | 33462 ft | 191 kts | 147° |
| 2026-05-01 14:05 | 10.86470 | 123.98187 | 31800 ft | 177 kts | 146° |
| 2026-05-01 14:05 | 10.85482 | 123.98840 | 30703 ft | 166 kts | 146° |
| 2026-05-01 14:05 | 10.84317 | 123.99611 | 29981 ft | 240 kts | 146° |
| 2026-05-01 14:05 | 10.82832 | 124.00592 | 30009 ft | 259 kts | 146° |
| 2026-05-01 14:06 | 10.81317 | 124.01582 | 29566 ft | 256 kts | 146° |